Time;durP1;ratioP1;P1;durP2;ratioP2;P2;SDS_P1;SDS_P2;PMS_P1;PMS_P2;Temp;Humidity;BMP_temperature;BMP_pressure;BME280_temperature;BME280_humidity;BME280_pressure;Samples;Min_cycle;Max_cycle;Signal;HPM_P1;HPM_P2
2023/12/25 00:00:45;;;;;;;;;;;9.70;100.00;;;;;;6267013;22;19925;-67
2023/12/25 00:03:12;;;;;;;;;;;9.70;100.00;;;;;;6265811;22;19919;-67
2023/12/25 00:05:39;;;;;;;;;;;9.60;100.00;;;;;;6266388;22;19923;-67
2023/12/25 00:08:06;;;;;;;;;;;9.60;100.00;;;;;;6241272;22;19915;-67
2023/12/25 00:10:33;;;;;;;;;;;9.50;100.00;;;;;;6266457;22;20675;-67
2023/12/25 00:13:00;;;;;;;;;;;9.50;100.00;;;;;;6266618;22;20422;-67
2023/12/25 00:15:26;;;;;;;;;;;9.60;100.00;;;;;;6267619;22;19926;-67
2023/12/25 00:17:53;;;;;;;;;;;9.50;100.00;;;;;;6267816;22;19990;-67
2023/12/25 00:20:21;;;;;;;;;;;9.50;100.00;;;;;;6240162;22;19926;-67
2023/12/25 00:22:47;;;;;;;;;;;9.60;100.00;;;;;;6240082;22;19926;-67
2023/12/25 00:25:14;;;;;;;;;;;9.60;100.00;;;;;;6267309;22;19923;-67
2023/12/25 00:27:41;;;;;;;;;;;9.60;100.00;;;;;;6266875;22;20210;-67
2023/12/25 00:30:08;;;;;;;;;;;9.50;100.00;;;;;;6240734;22;20407;-67
2023/12/25 00:32:35;;;;;;;;;;;9.50;100.00;;;;;;6240345;22;20017;-67
2023/12/25 00:35:01;;;;;;;;;;;9.50;100.00;;;;;;6240285;22;19999;-67
2023/12/25 00:37:28;;;;;;;;;;;9.60;100.00;;;;;;6267532;22;19923;-67
2023/12/25 00:39:55;;;;;;;;;;;9.60;100.00;;;;;;6240615;22;19930;-67
2023/12/25 00:42:22;;;;;;;;;;;9.70;100.00;;;;;;6240066;22;19919;-67
2023/12/25 00:44:48;;;;;;;;;;;9.70;100.00;;;;;;6266910;22;19923;-67
2023/12/25 00:47:15;;;;;;;;;;;9.70;100.00;;;;;;6266713;22;20247;-67
2023/12/25 00:49:42;;;;;;;;;;;9.70;100.00;;;;;;6266928;22;19919;-67
2023/12/25 00:52:09;;;;;;;;;;;9.70;100.00;;;;;;6266096;22;19933;-67
2023/12/25 00:54:36;;;;;;;;;;;9.80;100.00;;;;;;6266910;22;19977;-67
2023/12/25 00:57:03;;;;;;;;;;;9.80;100.00;;;;;;6266881;22;19931;-67
2023/12/25 00:59:30;;;;;;;;;;;9.80;100.00;;;;;;6239259;22;19919;-67
2023/12/25 01:01:57;;;;;;;;;;;9.80;100.00;;;;;;6266912;22;19919;-67
2023/12/25 01:04:23;;;;;;;;;;;9.80;100.00;;;;;;6267483;22;19923;-67
2023/12/25 01:06:50;;;;;;;;;;;9.70;100.00;;;;;;6239025;22;19946;-67
2023/12/25 01:09:17;;;;;;;;;;;9.70;100.00;;;;;;6266856;22;19919;-67
2023/12/25 01:11:44;;;;;;;;;;;9.70;100.00;;;;;;6267054;22;19919;-67
2023/12/25 01:14:11;;;;;;;;;;;9.70;100.00;;;;;;6267450;22;19929;-66
2023/12/25 01:16:38;;;;;;;;;;;9.80;100.00;;;;;;6239736;22;19923;-67
2023/12/25 01:19:05;;;;;;;;;;;9.70;100.00;;;;;;6240777;22;20294;-66
2023/12/25 01:21:32;;;;;;;;;;;9.70;100.00;;;;;;6266936;22;19926;-67
2023/12/25 01:23:58;;;;;;;;;;;9.70;100.00;;;;;;6266149;22;19923;-67
2023/12/25 01:26:26;;;;;;;;;;;9.70;100.00;;;;;;6266376;22;19919;-67
2023/12/25 01:28:52;;;;;;;;;;;9.70;100.00;;;;;;6267089;22;19943;-67
2023/12/25 01:31:19;;;;;;;;;;;9.70;100.00;;;;;;6265092;22;20370;-67
2023/12/25 01:33:46;;;;;;;;;;;9.80;100.00;;;;;;6239766;22;19961;-67
2023/12/25 01:36:13;;;;;;;;;;;9.80;100.00;;;;;;6239665;22;19919;-67
2023/12/25 01:38:39;;;;;;;;;;;9.70;100.00;;;;;;6266569;22;20287;-67
2023/12/25 01:41:06;;;;;;;;;;;9.70;100.00;;;;;;6266381;22;19915;-67
2023/12/25 01:43:42;;;;;;;;;;;9.70;100.00;;;;;;6241315;22;19923;-67
2023/12/25 01:46:11;;;;;;;;;;;9.80;100.00;;;;;;6266433;22;19977;-67
2023/12/25 01:48:39;;;;;;;;;;;9.80;100.00;;;;;;6266294;22;19915;-67
2023/12/25 01:51:06;;;;;;;;;;;9.80;100.00;;;;;;6239558;22;19919;-67
2023/12/25 01:53:34;;;;;;;;;;;9.80;100.00;;;;;;6266284;22;20201;-67
2023/12/25 01:56:01;;;;;;;;;;;9.80;100.00;;;;;;6265560;22;19955;-67
2023/12/25 01:58:28;;;;;;;;;;;9.80;100.00;;;;;;6239033;22;20330;-67
2023/12/25 02:00:54;;;;;;;;;;;9.70;100.00;;;;;;6265929;22;19965;-67
2023/12/25 02:03:21;;;;;;;;;;;9.70;100.00;;;;;;6265525;22;20002;-67
2023/12/25 02:05:48;;;;;;;;;;;9.70;100.00;;;;;;6266341;22;19926;-67
2023/12/25 02:08:17;;;;;;;;;;;9.60;100.00;;;;;;6266291;22;19919;-67
2023/12/25 02:10:43;;;;;;;;;;;9.70;100.00;;;;;;6239872;22;19926;-67
2023/12/25 02:13:10;;;;;;;;;;;9.70;100.00;;;;;;6239781;22;19923;-67
2023/12/25 02:15:39;;;;;;;;;;;9.60;100.00;;;;;;6266623;22;19997;-67
2023/12/25 02:18:05;;;;;;;;;;;9.60;100.00;;;;;;6266493;22;20009;-67
2023/12/25 02:20:33;;;;;;;;;;;9.60;100.00;;;;;;6265358;22;20368;-67
2023/12/25 02:23:02;;;;;;;;;;;9.60;100.00;;;;;;6265942;22;20050;-67
2023/12/25 02:25:33;;;;;;;;;;;9.60;100.00;;;;;;6266297;22;20304;-67
2023/12/25 02:28:00;;;;;;;;;;;9.60;100.00;;;;;;6265835;22;19942;-67
2023/12/25 02:30:28;;;;;;;;;;;9.70;100.00;;;;;;6239369;22;19928;-67
2023/12/25 02:32:55;;;;;;;;;;;9.70;100.00;;;;;;6267130;22;20001;-67
2023/12/25 02:35:22;;;;;;;;;;;9.80;100.00;;;;;;6267014;22;19942;-67
2023/12/25 02:37:49;;;;;;;;;;;9.80;100.00;;;;;;6239542;22;19919;-67
2023/12/25 02:40:15;;;;;;;;;;;9.80;100.00;;;;;;6267342;22;19937;-67
2023/12/25 02:42:42;;;;;;;;;;;9.70;100.00;;;;;;6266474;22;19919;-67
2023/12/25 02:45:09;;;;;;;;;;;9.60;100.00;;;;;;6240932;22;19919;-67
2023/12/25 02:47:36;;;;;;;;;;;9.60;100.00;;;;;;6241901;22;19919;-67
2023/12/25 02:50:03;;;;;;;;;;;9.70;100.00;;;;;;6267952;22;19919;-67
2023/12/25 02:52:30;;;;;;;;;;;9.70;100.00;;;;;;6241075;22;19927;-67
2023/12/25 02:54:56;;;;;;;;;;;9.60;100.00;;;;;;6267891;22;19915;-67
2023/12/25 02:57:23;;;;;;;;;;;9.60;100.00;;;;;;6267649;22;19915;-67
2023/12/25 02:59:50;;;;;;;;;;;9.70;100.00;;;;;;6267060;22;19978;-67
2023/12/25 03:02:17;;;;;;;;;;;9.70;100.00;;;;;;6268022;22;20668;-67
2023/12/25 03:04:43;;;;;;;;;;;9.60;100.00;;;;;;6268399;22;19919;-67
2023/12/25 03:07:10;;;;;;;;;;;9.60;100.00;;;;;;6240745;22;19973;-67
2023/12/25 03:09:37;;;;;;;;;;;9.50;100.00;;;;;;6268135;22;19992;-67
2023/12/25 03:12:04;;;;;;;;;;;9.50;100.00;;;;;;6267028;22;19923;-67
2023/12/25 03:14:31;;;;;;;;;;;9.50;100.00;;;;;;6240740;22;19919;-67
2023/12/25 03:16:57;;;;;;;;;;;9.50;100.00;;;;;;6239705;22;19942;-67
2023/12/25 03:19:24;;;;;;;;;;;9.50;100.00;;;;;;6266890;22;19919;-67
2023/12/25 03:21:51;;;;;;;;;;;9.50;100.00;;;;;;6268043;22;19986;-67
2023/12/25 03:24:18;;;;;;;;;;;9.50;100.00;;;;;;6266639;22;20048;-67
2023/12/25 03:26:44;;;;;;;;;;;9.50;100.00;;;;;;6267009;22;19919;-67
2023/12/25 03:29:11;;;;;;;;;;;9.60;100.00;;;;;;6267578;22;19925;-67
2023/12/25 03:31:38;;;;;;;;;;;9.60;100.00;;;;;;6267286;22;20032;-67
2023/12/25 03:34:05;;;;;;;;;;;9.60;100.00;;;;;;6240492;22;20008;-67
2023/12/25 03:36:34;;;;;;;;;;;9.60;100.00;;;;;;6266144;22;19919;-67
2023/12/25 03:39:01;;;;;;;;;;;9.60;100.00;;;;;;6266389;22;19923;-67
2023/12/25 03:41:28;;;;;;;;;;;9.70;100.00;;;;;;6267265;22;19919;-67
2023/12/25 03:43:54;;;;;;;;;;;9.70;100.00;;;;;;6267367;22;20459;-67
2023/12/25 03:46:21;;;;;;;;;;;9.70;100.00;;;;;;6266814;22;19923;-67
2023/12/25 03:48:50;;;;;;;;;;;9.70;100.00;;;;;;6266630;22;19950;-67
2023/12/25 03:51:17;;;;;;;;;;;9.60;100.00;;;;;;6240242;22;20291;-67
2023/12/25 03:53:44;;;;;;;;;;;9.60;100.00;;;;;;6266288;22;19968;-67
2023/12/25 03:56:14;;;;;;;;;;;9.50;100.00;;;;;;6266662;22;19922;-67
2023/12/25 03:58:41;;;;;;;;;;;9.50;100.00;;;;;;6266447;22;20286;-66
2023/12/25 04:01:08;;;;;;;;;;;9.50;100.00;;;;;;6240049;22;19923;-74
2023/12/25 04:03:35;;;;;;;;;;;9.40;100.00;;;;;;6266147;22;19919;-74
2023/12/25 04:06:01;;;;;;;;;;;9.50;100.00;;;;;;6266743;22;19926;-74
2023/12/25 04:08:28;;;;;;;;;;;9.50;100.00;;;;;;6267040;22;19919;-74
2023/12/25 04:10:55;;;;;;;;;;;9.50;100.00;;;;;;6266499;22;20218;-74
2023/12/25 04:13:22;;;;;;;;;;;9.50;100.00;;;;;;6266467;22;19919;-74
2023/12/25 04:15:48;;;;;;;;;;;9.50;100.00;;;;;;6238790;22;19923;-74
2023/12/25 04:18:15;;;;;;;;;;;9.60;100.00;;;;;;6266185;22;19926;-74
2023/12/25 04:20:42;;;;;;;;;;;9.60;100.00;;;;;;6266361;22;19926;-74
2023/12/25 04:23:09;;;;;;;;;;;9.60;100.00;;;;;;6266491;22;19919;-74
2023/12/25 04:25:36;;;;;;;;;;;9.60;100.00;;;;;;6265780;22;19923;-74
2023/12/25 04:28:02;;;;;;;;;;;9.60;100.00;;;;;;6239056;22;19938;-73
2023/12/25 04:30:29;;;;;;;;;;;9.70;100.00;;;;;;6265942;22;20287;-74
2023/12/25 04:32:56;;;;;;;;;;;9.70;100.00;;;;;;6266132;22;19925;-74
2023/12/25 04:35:23;;;;;;;;;;;9.70;100.00;;;;;;6265088;22;19993;-74
2023/12/25 04:37:50;;;;;;;;;;;9.60;100.00;;;;;;6265756;22;19919;-74
2023/12/25 04:40:17;;;;;;;;;;;9.50;100.00;;;;;;6266378;22;19950;-74
2023/12/25 04:42:43;;;;;;;;;;;9.40;100.00;;;;;;6265849;22;19946;-74
2023/12/25 04:45:10;;;;;;;;;;;9.40;100.00;;;;;;6238534;22;19988;-74
2023/12/25 04:47:37;;;;;;;;;;;9.30;100.00;;;;;;6239204;22;20032;-73
2023/12/25 04:50:04;;;;;;;;;;;9.20;100.00;;;;;;6265974;22;20485;-74
2023/12/25 04:52:31;;;;;;;;;;;9.20;100.00;;;;;;6265698;22;19923;-74
2023/12/25 04:54:58;;;;;;;;;;;9.10;100.00;;;;;;6266376;22;19919;-74
2023/12/25 04:57:24;;;;;;;;;;;9.10;100.00;;;;;;6266048;22;19987;-74
2023/12/25 04:59:51;;;;;;;;;;;9.10;100.00;;;;;;6265429;22;19965;-73
2023/12/25 05:02:18;;;;;;;;;;;9.00;100.00;;;;;;6264933;22;20591;-74
2023/12/25 05:04:45;;;;;;;;;;;9.10;100.00;;;;;;6238840;22;19919;-74
2023/12/25 05:07:12;;;;;;;;;;;9.00;100.00;;;;;;6264751;22;20000;-73
2023/12/25 05:09:38;;;;;;;;;;;9.10;100.00;;;;;;6266084;22;19923;-73
2023/12/25 05:12:05;;;;;;;;;;;9.00;100.00;;;;;;6266467;22;19915;-73
2023/12/25 05:14:32;;;;;;;;;;;8.90;100.00;;;;;;6238931;22;19958;-74
2023/12/25 05:16:59;;;;;;;;;;;8.80;100.00;;;;;;6238111;22;19927;-74
2023/12/25 05:19:26;;;;;;;;;;;8.70;100.00;;;;;;6265573;22;19923;-74
2023/12/25 05:21:52;;;;;;;;;;;8.70;100.00;;;;;;6265440;22;19926;-74
2023/12/25 05:24:19;;;;;;;;;;;8.60;100.00;;;;;;6265402;22;19996;-74
2023/12/25 05:26:46;;;;;;;;;;;8.40;100.00;;;;;;6264934;22;20375;-73
2023/12/25 05:29:13;;;;;;;;;;;8.10;100.00;;;;;;6264173;22;20324;-74
2023/12/25 05:31:39;;;;;;;;;;;8.00;100.00;;;;;;6237221;22;19923;-74
2023/12/25 05:34:06;;;;;;;;;;;7.80;100.00;;;;;;6264836;22;20651;-74
2023/12/25 05:36:33;;;;;;;;;;;7.70;100.00;;;;;;6237746;22;19954;-74
2023/12/25 05:39:00;;;;;;;;;;;7.50;100.00;;;;;;6264877;22;19959;-74
2023/12/25 05:41:40;;;;;;;;;;;7.40;100.00;;;;;;6265780;22;19918;-74
2023/12/25 05:44:07;;;;;;;;;;;7.40;100.00;;;;;;6239007;22;20378;-74
2023/12/25 05:46:34;;;;;;;;;;;7.30;100.00;;;;;;6266924;22;19990;-75
2023/12/25 05:49:00;;;;;;;;;;;7.20;100.00;;;;;;6264770;22;19926;-74
2023/12/25 05:51:27;;;;;;;;;;;7.20;100.00;;;;;;6238740;22;19923;-74
2023/12/25 05:53:54;;;;;;;;;;;7.10;100.00;;;;;;6265626;22;19973;-75
2023/12/25 05:56:21;;;;;;;;;;;7.10;100.00;;;;;;6238094;22;19926;-74
2023/12/25 05:58:48;;;;;;;;;;;7.10;100.00;;;;;;6265448;22;19925;-74
2023/12/25 06:01:15;;;;;;;;;;;7.20;100.00;;;;;;6238543;22;20267;-74
2023/12/25 06:03:42;;;;;;;;;;;7.20;100.00;;;;;;6264621;22;19966;-74
2023/12/25 06:06:09;;;;;;;;;;;7.20;100.00;;;;;;6238333;22;19938;-74
2023/12/25 06:08:36;;;;;;;;;;;7.20;100.00;;;;;;6265456;22;19955;-74
2023/12/25 06:11:03;;;;;;;;;;;7.10;100.00;;;;;;6237367;22;19951;-74
2023/12/25 06:13:30;;;;;;;;;;;7.00;100.00;;;;;;6263582;22;19992;-74
2023/12/25 06:15:56;;;;;;;;;;;6.90;100.00;;;;;;6264674;22;19922;-74
2023/12/25 06:18:23;;;;;;;;;;;6.90;100.00;;;;;;6266452;22;19919;-73
2023/12/25 06:20:50;;;;;;;;;;;7.00;100.00;;;;;;6238488;22;20489;-74
2023/12/25 06:23:17;;;;;;;;;;;7.00;100.00;;;;;;6266102;22;19919;-74
2023/12/25 06:25:44;;;;;;;;;;;7.00;100.00;;;;;;6264980;22;20216;-74
2023/12/25 06:28:11;;;;;;;;;;;7.20;100.00;;;;;;6264791;22;19915;-74
2023/12/25 06:30:37;;;;;;;;;;;7.30;100.00;;;;;;6264717;22;19919;-73
2023/12/25 06:33:04;;;;;;;;;;;7.30;100.00;;;;;;6264962;22;20608;-73
2023/12/25 06:35:31;;;;;;;;;;;7.30;100.00;;;;;;6263407;22;19926;-74
2023/12/25 06:37:58;;;;;;;;;;;7.30;100.00;;;;;;6238641;22;19989;-67
2023/12/25 06:40:26;;;;;;;;;;;7.30;100.00;;;;;;6265148;22;19930;-67
2023/12/25 06:42:53;;;;;;;;;;;7.20;100.00;;;;;;6237559;22;20584;-67
2023/12/25 06:45:19;;;;;;;;;;;7.20;100.00;;;;;;6237292;22;20567;-67
2023/12/25 06:47:47;;;;;;;;;;;7.30;100.00;;;;;;6238134;22;19957;-67
2023/12/25 06:50:14;;;;;;;;;;;7.30;100.00;;;;;;6264786;22;19942;-67
2023/12/25 06:52:41;;;;;;;;;;;7.30;100.00;;;;;;6238248;22;19993;-67
2023/12/25 06:55:08;;;;;;;;;;;7.20;100.00;;;;;;6237863;22;19923;-67
2023/12/25 06:57:36;;;;;;;;;;;7.20;100.00;;;;;;6264361;22;19915;-67
2023/12/25 07:00:04;;;;;;;;;;;7.10;100.00;;;;;;6264150;22;19923;-68
2023/12/25 07:02:31;;;;;;;;;;;7.20;100.00;;;;;;6262648;22;19966;-67
2023/12/25 07:04:57;;;;;;;;;;;7.20;100.00;;;;;;6262289;22;19919;-67
2023/12/25 07:07:24;;;;;;;;;;;7.20;100.00;;;;;;6237714;22;19969;-67
2023/12/25 07:09:51;;;;;;;;;;;7.10;100.00;;;;;;6263256;22;20271;-67
2023/12/25 07:12:18;;;;;;;;;;;7.10;100.00;;;;;;6263798;22;20577;-67
2023/12/25 07:15:33;;;;;;;;;;;7.20;100.00;;;;;;6264501;22;20648;-68
2023/12/25 07:17:56;;;;;;;;;;;7.20;100.00;;;;;;6263987;22;19913;-74
2023/12/25 07:20:24;;;;;;;;;;;7.30;100.00;;;;;;6264513;22;19994;-74
2023/12/25 07:22:53;;;;;;;;;;;7.30;100.00;;;;;;6237578;22;19944;-73
2023/12/25 07:25:20;;;;;;;;;;;7.30;100.00;;;;;;6236880;22;20475;-74
2023/12/25 07:27:47;;;;;;;;;;;7.40;100.00;;;;;;6263914;22;19942;-74
2023/12/25 07:30:14;;;;;;;;;;;7.40;100.00;;;;;;6264332;22;20100;-74
2023/12/25 07:32:41;;;;;;;;;;;7.40;100.00;;;;;;6265603;22;20026;-74
2023/12/25 07:35:08;;;;;;;;;;;7.30;100.00;;;;;;6265086;22;20624;-74
2023/12/25 07:37:35;;;;;;;;;;;7.40;100.00;;;;;;6237954;22;19919;-74
2023/12/25 07:40:02;;;;;;;;;;;7.40;100.00;;;;;;6238972;22;19919;-74
2023/12/25 07:42:28;;;;;;;;;;;7.40;100.00;;;;;;6266539;22;20606;-74
2023/12/25 07:44:55;;;;;;;;;;;7.40;100.00;;;;;;6239365;22;20032;-74
2023/12/25 07:47:22;;;;;;;;;;;7.40;100.00;;;;;;6265653;22;19926;-75
2023/12/25 07:49:50;;;;;;;;;;;7.40;100.00;;;;;;6238670;22;19923;-74
2023/12/25 07:52:17;;;;;;;;;;;7.40;100.00;;;;;;6265617;22;19977;-74
2023/12/25 07:54:43;;;;;;;;;;;7.40;100.00;;;;;;6265753;22;19927;-74
2023/12/25 07:57:10;;;;;;;;;;;7.40;100.00;;;;;;6264444;22;19965;-74
2023/12/25 07:59:37;;;;;;;;;;;7.40;100.00;;;;;;6235012;22;19919;-75
2023/12/25 08:02:04;;;;;;;;;;;7.40;100.00;;;;;;6237341;22;19923;-75
2023/12/25 08:04:30;;;;;;;;;;;7.40;100.00;;;;;;6233917;22;19922;-74
2023/12/25 08:06:57;;;;;;;;;;;7.30;100.00;;;;;;6238830;22;19919;-75
2023/12/25 08:09:25;;;;;;;;;;;7.30;100.00;;;;;;6238189;22;19923;-75
2023/12/25 08:11:52;;;;;;;;;;;7.30;100.00;;;;;;6264507;22;20114;-74
2023/12/25 08:14:18;;;;;;;;;;;7.30;100.00;;;;;;6262434;22;19929;-74
2023/12/25 08:16:45;;;;;;;;;;;7.30;100.00;;;;;;6239640;22;19919;-74
2023/12/25 08:19:12;;;;;;;;;;;7.30;100.00;;;;;;6264998;22;19919;-74
2023/12/25 08:21:40;;;;;;;;;;;7.30;100.00;;;;;;6264695;22;20391;-73
2023/12/25 08:24:07;;;;;;;;;;;7.30;100.00;;;;;;6262561;22;19919;-73
2023/12/25 08:26:35;;;;;;;;;;;7.30;100.00;;;;;;6264385;22;19931;-73
2023/12/25 08:29:02;;;;;;;;;;;7.30;100.00;;;;;;6264281;22;19925;-73
2023/12/25 08:31:28;;;;;;;;;;;7.30;100.00;;;;;;6265526;22;19919;-73
2023/12/25 08:33:55;;;;;;;;;;;7.20;100.00;;;;;;6264624;22;20022;-73
2023/12/25 08:36:22;;;;;;;;;;;7.20;100.00;;;;;;6264682;22;19919;-73
2023/12/25 08:38:49;;;;;;;;;;;7.20;100.00;;;;;;6265903;22;19919;-75
2023/12/25 08:41:16;;;;;;;;;;;7.10;100.00;;;;;;6265143;22;19961;-76
2023/12/25 08:43:42;;;;;;;;;;;7.10;100.00;;;;;;6238401;22;19942;-77
2023/12/25 08:46:16;;;;;;;;;;;7.20;100.00;;;;;;6240601;22;19926;-75
2023/12/25 08:48:43;;;;;;;;;;;7.20;100.00;;;;;;6239981;22;20390;-75
2023/12/25 08:51:10;;;;;;;;;;;7.20;100.00;;;;;;6266695;22;19969;-74
2023/12/25 08:53:37;;;;;;;;;;;7.20;100.00;;;;;;6265955;22;19919;-67
2023/12/25 08:56:04;;;;;;;;;;;7.20;100.00;;;;;;6265119;22;19923;-66
2023/12/25 08:58:31;;;;;;;;;;;7.20;100.00;;;;;;6264721;22;19919;-67
2023/12/25 09:00:58;;;;;;;;;;;7.20;100.00;;;;;;6263050;22;19919;-67
2023/12/25 09:03:25;;;;;;;;;;;7.20;100.00;;;;;;6236517;22;19969;-67
2023/12/25 09:05:51;;;;;;;;;;;7.30;100.00;;;;;;6263063;22;19919;-66
2023/12/25 09:08:21;;;;;;;;;;;7.30;100.00;;;;;;6266076;22;19926;-66
2023/12/25 09:10:48;;;;;;;;;;;7.30;100.00;;;;;;6265516;22;19919;-67
2023/12/25 09:13:16;;;;;;;;;;;7.30;100.00;;;;;;6265550;22;19977;-66
2023/12/25 09:15:43;;;;;;;;;;;7.30;100.00;;;;;;6266571;22;19973;-68
2023/12/25 09:18:10;;;;;;;;;;;7.30;100.00;;;;;;6238185;22;19968;-67
2023/12/25 09:20:37;;;;;;;;;;;7.30;100.00;;;;;;6266886;22;20248;-67
2023/12/25 09:23:04;;;;;;;;;;;7.30;100.00;;;;;;6264782;22;19925;-67
2023/12/25 09:25:31;;;;;;;;;;;7.30;100.00;;;;;;6264860;22;19919;-67
2023/12/25 09:27:57;;;;;;;;;;;7.30;100.00;;;;;;6239327;22;19953;-67
2023/12/25 09:30:24;;;;;;;;;;;7.30;100.00;;;;;;6261847;22;20405;-67
2023/12/25 09:32:51;;;;;;;;;;;7.40;100.00;;;;;;6261120;22;19939;-67
2023/12/25 09:35:18;;;;;;;;;;;7.40;100.00;;;;;;6265381;22;19919;-67
2023/12/25 09:37:45;;;;;;;;;;;7.30;100.00;;;;;;6263308;22;19919;-67
2023/12/25 09:40:12;;;;;;;;;;;7.40;100.00;;;;;;6262891;22;19950;-67
2023/12/25 09:42:39;;;;;;;;;;;7.30;100.00;;;;;;6263916;22;19955;-67
2023/12/25 09:45:06;;;;;;;;;;;7.40;100.00;;;;;;6265724;22;20342;-67
2023/12/25 09:47:35;;;;;;;;;;;7.40;100.00;;;;;;6264784;22;20002;-67
2023/12/25 09:50:05;;;;;;;;;;;7.40;100.00;;;;;;6264916;22;19926;-67
2023/12/25 09:52:32;;;;;;;;;;;7.40;100.00;;;;;;6265546;22;19926;-67
2023/12/25 09:54:59;;;;;;;;;;;7.50;100.00;;;;;;6235966;22;19919;-67
2023/12/25 09:57:26;;;;;;;;;;;7.50;100.00;;;;;;6262690;22;19915;-67
2023/12/25 09:59:54;;;;;;;;;;;7.50;100.00;;;;;;6237465;22;20629;-67
2023/12/25 10:02:22;;;;;;;;;;;7.50;100.00;;;;;;6235742;22;19996;-66
2023/12/25 10:05:05;;;;;;;;;;;7.50;100.00;;;;;;6263608;22;19925;-67
2023/12/25 10:07:32;;;;;;;;;;;7.50;100.00;;;;;;6237290;22;20475;-75
2023/12/25 10:09:59;;;;;;;;;;;7.60;100.00;;;;;;6265232;22;19923;-75
2023/12/25 10:12:26;;;;;;;;;;;7.60;100.00;;;;;;6236708;22;19923;-74
2023/12/25 10:14:53;;;;;;;;;;;7.70;100.00;;;;;;6264531;22;20336;-73
2023/12/25 10:17:19;;;;;;;;;;;7.80;100.00;;;;;;6263017;22;20275;-74
2023/12/25 10:19:50;;;;;;;;;;;7.80;100.00;;;;;;6262880;22;19919;-73
2023/12/25 10:22:46;;;;;;;;;;;7.80;100.00;;;;;;6237550;22;19969;-74
2023/12/25 10:25:15;;;;;;;;;;;7.90;100.00;;;;;;6207265;22;20319;-74
2023/12/25 10:27:42;;;;;;;;;;;7.80;100.00;;;;;;6265618;22;19923;-74
2023/12/25 10:30:17;;;;;;;;;;;7.90;100.00;;;;;;6237760;22;19919;-75
2023/12/25 10:32:44;;;;;;;;;;;7.90;100.00;;;;;;6265123;22;19998;-73
2023/12/25 10:35:15;;;;;;;;;;;8.00;100.00;;;;;;6238532;22;19919;-73
2023/12/25 10:37:42;;;;;;;;;;;8.10;100.00;;;;;;6263609;22;19919;-74
2023/12/25 10:40:19;;;;;;;;;;;8.20;100.00;;;;;;6265294;22;19919;-73
2023/12/25 10:42:46;;;;;;;;;;;8.20;100.00;;;;;;6238048;22;20399;-73
2023/12/25 10:45:14;;;;;;;;;;;8.20;100.00;;;;;;6238061;22;19950;-73
2023/12/25 10:47:41;;;;;;;;;;;8.30;100.00;;;;;;6265558;22;19931;-73
2023/12/25 10:50:09;;;;;;;;;;;8.40;100.00;;;;;;6264168;22;20333;-72
2023/12/25 10:52:37;;;;;;;;;;;8.30;98.60;;;;;;6265618;22;19934;-72
2023/12/25 10:55:23;;;;;;;;;;;8.30;100.00;;;;;;6267758;22;19923;-72
2023/12/25 10:57:52;;;;;;;;;;;8.30;100.00;;;;;;6237797;22;19984;-72
2023/12/25 11:00:20;;;;;;;;;;;8.40;100.00;;;;;;6237733;22;19927;-72
2023/12/25 11:02:48;;;;;;;;;;;8.40;99.90;;;;;;6238240;22;19974;-72
2023/12/25 11:05:15;;;;;;;;;;;8.40;100.00;;;;;;6266824;22;19927;-72
2023/12/25 11:07:42;;;;;;;;;;;8.50;99.30;;;;;;6266773;22;19919;-75
2023/12/25 11:10:11;;;;;;;;;;;8.60;97.90;;;;;;6265149;22;19961;-75
2023/12/25 11:12:38;;;;;;;;;;;8.50;96.90;;;;;;6266342;22;20446;-74
2023/12/25 11:15:05;;;;;;;;;;;8.50;94.90;;;;;;6239299;22;19927;-74
2023/12/25 11:17:32;;;;;;;;;;;8.50;95.50;;;;;;6270267;22;19938;-67
2023/12/25 11:20:03;;;;;;;;;;;8.60;97.90;;;;;;6265553;22;19915;-67
2023/12/25 11:22:33;;;;;;;;;;;8.60;94.80;;;;;;6239392;22;19919;-67
2023/12/25 11:25:02;;;;;;;;;;;8.60;92.30;;;;;;6265417;22;19954;-67
2023/12/25 11:27:31;;;;;;;;;;;8.50;93.20;;;;;;6267168;22;19926;-67
2023/12/25 11:30:08;;;;;;;;;;;8.50;92.10;;;;;;6267100;22;19924;-67
2023/12/25 11:32:40;;;;;;;;;;;8.60;93.40;;;;;;6241896;22;20522;-73
2023/12/25 11:35:07;;;;;;;;;;;8.80;90.60;;;;;;6264171;22;19927;-74
2023/12/25 11:37:35;;;;;;;;;;;8.90;89.60;;;;;;6265355;22;20052;-74
2023/12/25 11:40:05;;;;;;;;;;;9.10;93.00;;;;;;6263084;22;20332;-74
2023/12/25 11:42:33;;;;;;;;;;;9.40;89.60;;;;;;6238092;22;20010;-73
2023/12/25 11:45:01;;;;;;;;;;;9.50;86.60;;;;;;6264655;22;19919;-74
2023/12/25 11:47:36;;;;;;;;;;;9.50;87.60;;;;;;6264276;22;19961;-74
2023/12/25 11:50:04;;;;;;;;;;;9.60;84.20;;;;;;6264596;22;19947;-74
2023/12/25 11:52:46;;;;;;;;;;;9.40;84.10;;;;;;6266593;22;19919;-75
2023/12/25 11:55:15;;;;;;;;;;;9.30;84.80;;;;;;6265280;22;20456;-74
2023/12/25 11:57:43;;;;;;;;;;;9.30;85.10;;;;;;6265444;22;19949;-73
2023/12/25 12:00:17;;;;;;;;;;;9.40;86.20;;;;;;6265896;22;20469;-73
2023/12/25 12:02:45;;;;;;;;;;;9.40;88.10;;;;;;6265172;22;19926;-73
2023/12/25 12:05:12;;;;;;;;;;;9.40;90.30;;;;;;6263375;22;19988;-73
2023/12/25 12:07:39;;;;;;;;;;;9.40;85.10;;;;;;6264611;22;19997;-73
2023/12/25 12:10:06;;;;;;;;;;;9.40;84.90;;;;;;6266735;22;19943;-73
2023/12/25 12:12:33;;;;;;;;;;;9.30;88.00;;;;;;6266678;22;20017;-73
2023/12/25 12:15:01;;;;;;;;;;;9.30;86.20;;;;;;6266226;22;20272;-73
2023/12/25 12:17:29;;;;;;;;;;;9.10;85.10;;;;;;6266295;22;19973;-73
2023/12/25 12:19:56;;;;;;;;;;;8.80;81.60;;;;;;6265956;22;19919;-73
2023/12/25 12:22:23;;;;;;;;;;;8.60;82.50;;;;;;6266453;22;19919;-72
2023/12/25 12:24:50;;;;;;;;;;;8.50;84.30;;;;;;6239862;22;19919;-72
2023/12/25 12:27:20;;;;;;;;;;;8.40;88.00;;;;;;6266906;22;19930;-73
2023/12/25 12:29:48;;;;;;;;;;;8.40;87.10;;;;;;6266234;22;20283;-73
2023/12/25 12:32:16;;;;;;;;;;;8.30;86.90;;;;;;6267128;22;19919;-73
2023/12/25 12:34:43;;;;;;;;;;;8.20;86.20;;;;;;6239678;22;19923;-73
2023/12/25 12:37:10;;;;;;;;;;;8.10;85.50;;;;;;6266468;22;19946;-73
2023/12/25 12:39:38;;;;;;;;;;;8.00;85.90;;;;;;6266795;22;19927;-73
2023/12/25 12:42:09;;;;;;;;;;;8.00;85.60;;;;;;6239888;22;19926;-73
2023/12/25 12:44:36;;;;;;;;;;;7.90;81.80;;;;;;6238820;22;19923;-73
2023/12/25 12:47:05;;;;;;;;;;;7.80;82.90;;;;;;6239093;22;19919;-73
2023/12/25 12:49:32;;;;;;;;;;;7.70;83.20;;;;;;6266715;22;19994;-73
2023/12/25 12:51:59;;;;;;;;;;;7.70;82.70;;;;;;6266738;22;19993;-73
2023/12/25 12:54:26;;;;;;;;;;;7.60;83.70;;;;;;6266571;22;19919;-73
2023/12/25 12:56:52;;;;;;;;;;;7.60;84.50;;;;;;6266784;22;19972;-73
2023/12/25 12:59:19;;;;;;;;;;;7.70;84.70;;;;;;6266714;22;20522;-73
2023/12/25 13:01:46;;;;;;;;;;;8.00;87.70;;;;;;6266561;22;19915;-73
2023/12/25 13:04:14;;;;;;;;;;;8.30;82.50;;;;;;6266514;22;19949;-73
2023/12/25 13:06:41;;;;;;;;;;;8.50;83.90;;;;;;6238597;22;19919;-73
2023/12/25 13:09:08;;;;;;;;;;;8.90;82.70;;;;;;6265546;22;19919;-73
2023/12/25 13:11:35;;;;;;;;;;;9.30;78.00;;;;;;6239151;22;19915;-73
2023/12/25 13:14:02;;;;;;;;;;;9.20;79.50;;;;;;6266939;22;19926;-73
2023/12/25 13:16:29;;;;;;;;;;;9.10;79.60;;;;;;6266702;22;19923;-73
2023/12/25 13:18:56;;;;;;;;;;;9.10;80.80;;;;;;6264466;22;19915;-73
2023/12/25 13:21:23;;;;;;;;;;;9.10;80.50;;;;;;6270227;22;20533;-73
2023/12/25 13:23:50;;;;;;;;;;;9.00;82.70;;;;;;6269438;22;20401;-73
2023/12/25 13:26:17;;;;;;;;;;;8.90;82.70;;;;;;6296047;22;20549;-73
2023/12/25 13:28:43;;;;;;;;;;;8.70;82.70;;;;;;6297508;22;19954;-73
2023/12/25 13:31:10;;;;;;;;;;;8.70;85.70;;;;;;6269561;22;19919;-73
2023/12/25 13:33:42;;;;;;;;;;;8.60;86.60;;;;;;6270035;22;19926;-73
2023/12/25 13:36:11;;;;;;;;;;;8.50;84.50;;;;;;6297471;22;20222;-73
2023/12/25 13:38:38;;;;;;;;;;;8.40;88.10;;;;;;6297706;22;19960;-73
2023/12/25 13:41:06;;;;;;;;;;;8.20;86.70;;;;;;6297300;22;19977;-73
2023/12/25 13:43:33;;;;;;;;;;;8.10;88.30;;;;;;6297017;22;19926;-73
2023/12/25 13:46:00;;;;;;;;;;;8.00;85.80;;;;;;6296039;22;19953;-73
2023/12/25 13:48:27;;;;;;;;;;;8.00;87.40;;;;;;6300535;22;19919;-73
2023/12/25 13:50:54;;;;;;;;;;;8.00;89.80;;;;;;6270190;22;19919;-73
2023/12/25 13:53:22;;;;;;;;;;;7.90;87.50;;;;;;6297437;22;19914;-73
2023/12/25 13:55:49;;;;;;;;;;;7.80;87.60;;;;;;6269168;22;19927;-73
2023/12/25 13:58:16;;;;;;;;;;;7.80;89.90;;;;;;6296576;22;19919;-73
2023/12/25 14:00:42;;;;;;;;;;;7.80;89.70;;;;;;6269785;22;19926;-73
2023/12/25 14:03:09;;;;;;;;;;;7.80;90.00;;;;;;6269008;22;19961;-73
2023/12/25 14:05:36;;;;;;;;;;;7.70;89.40;;;;;;6296749;22;19942;-73
2023/12/25 14:08:03;;;;;;;;;;;7.70;88.90;;;;;;6296935;22;19925;-73
2023/12/25 14:10:30;;;;;;;;;;;7.60;90.00;;;;;;6297312;22;19926;-73
2023/12/25 14:12:57;;;;;;;;;;;7.50;90.40;;;;;;6296483;22;19919;-73
2023/12/25 14:15:24;;;;;;;;;;;7.40;90.40;;;;;;6296873;22;19968;-73
2023/12/25 14:17:52;;;;;;;;;;;7.40;93.00;;;;;;6281766;22;19953;-72
2023/12/25 14:20:20;;;;;;;;;;;7.30;92.80;;;;;;6265328;22;19927;-73
2023/12/25 14:22:46;;;;;;;;;;;7.30;92.50;;;;;;6266465;22;19969;-73